sensor_id;sensor_type;location;lat;lon;timestamp;pressure;altitude;pressure_sealevel;temperature;humidity
20079;BME280;10199;48.850;8.924;2022-09-09T00:00:49;96852.03;;;14.51;76.64
20079;BME280;10199;48.850;8.924;2022-09-09T00:03:25;96840.75;;;14.37;76.80
20079;BME280;10199;48.850;8.924;2022-09-09T00:05:59;96859.53;;;14.42;76.33
20079;BME280;10199;48.850;8.924;2022-09-09T00:08:38;96848.50;;;14.39;75.90
20079;BME280;10199;48.850;8.924;2022-09-09T00:11:12;96859.03;;;14.63;75.44
20079;BME280;10199;48.850;8.924;2022-09-09T00:13:46;96850.47;;;14.61;75.78
20079;BME280;10199;48.850;8.924;2022-09-09T00:16:20;96837.13;;;14.50;75.76
20079;BME280;10199;48.850;8.924;2022-09-09T00:18:55;96857.84;;;14.59;75.71
20079;BME280;10199;48.850;8.924;2022-09-09T00:21:31;96845.56;;;14.77;75.93
20079;BME280;10199;48.850;8.924;2022-09-09T00:24:04;96856.97;;;14.65;76.56
20079;BME280;10199;48.850;8.924;2022-09-09T00:26:40;96838.25;;;14.42;77.36
20079;BME280;10199;48.850;8.924;2022-09-09T00:29:17;96848.28;;;14.40;77.38
20079;BME280;10199;48.850;8.924;2022-09-09T00:31:45;96823.75;;;14.38;76.78
20079;BME280;10199;48.850;8.924;2022-09-09T00:34:16;96792.91;;;14.19;77.63
20079;BME280;10199;48.850;8.924;2022-09-09T00:36:48;96861.28;;;14.48;76.91
20079;BME280;10199;48.850;8.924;2022-09-09T00:39:27;96831.47;;;14.58;76.41
20079;BME280;10199;48.850;8.924;2022-09-09T00:42:10;96862.28;;;14.65;76.74
20079;BME280;10199;48.850;8.924;2022-09-09T00:44:51;96839.03;;;14.73;76.09
20079;BME280;10199;48.850;8.924;2022-09-09T00:47:32;96847.19;;;14.78;75.96
20079;BME280;10199;48.850;8.924;2022-09-09T00:50:15;96844.75;;;14.76;76.55
20079;BME280;10199;48.850;8.924;2022-09-09T00:52:51;96838.06;;;14.85;75.85
20079;BME280;10199;48.850;8.924;2022-09-09T00:55:28;96841.41;;;14.81;75.81
20079;BME280;10199;48.850;8.924;2022-09-09T00:58:00;96834.69;;;14.90;75.47
20079;BME280;10199;48.850;8.924;2022-09-09T01:00:31;96821.72;;;14.82;75.13
20079;BME280;10199;48.850;8.924;2022-09-09T01:03:13;96837.84;;;14.98;74.79
20079;BME280;10199;48.850;8.924;2022-09-09T01:05:48;96777.78;;;14.61;74.57
20079;BME280;10199;48.850;8.924;2022-09-09T01:08:32;96850.94;;;15.00;74.61
20079;BME280;10199;48.850;8.924;2022-09-09T01:11:07;96835.19;;;14.98;75.00
20079;BME280;10199;48.850;8.924;2022-09-09T01:13:38;96840.03;;;14.90;75.50
20079;BME280;10199;48.850;8.924;2022-09-09T01:16:11;96844.78;;;14.88;75.64
20079;BME280;10199;48.850;8.924;2022-09-09T01:18:44;96834.81;;;14.83;75.64
20079;BME280;10199;48.850;8.924;2022-09-09T01:21:18;96846.28;;;14.84;75.26
20079;BME280;10199;48.850;8.924;2022-09-09T01:24:04;96854.63;;;14.99;74.70
20079;BME280;10199;48.850;8.924;2022-09-09T01:27:03;96831.78;;;14.80;75.16
20079;BME280;10199;48.850;8.924;2022-09-09T01:29:33;96841.41;;;14.81;75.43
20079;BME280;10199;48.850;8.924;2022-09-09T01:32:35;96854.50;;;14.94;75.18
20079;BME280;10199;48.850;8.924;2022-09-09T01:34:52;96863.31;;;14.94;75.31
20079;BME280;10199;48.850;8.924;2022-09-09T01:37:20;96836.19;;;14.86;74.97
20079;BME280;10199;48.850;8.924;2022-09-09T01:39:48;96872.59;;;15.04;74.77
20079;BME280;10199;48.850;8.924;2022-09-09T01:42:17;96869.34;;;15.02;75.33
20079;BME280;10199;48.850;8.924;2022-09-09T01:44:45;96857.84;;;14.89;75.73
20079;BME280;10199;48.850;8.924;2022-09-09T01:47:14;96824.44;;;14.63;75.79
20079;BME280;10199;48.850;8.924;2022-09-09T01:49:59;96894.09;;;14.90;76.49
20079;BME280;10199;48.850;8.924;2022-09-09T01:52:30;96868.53;;;15.01;74.86
20079;BME280;10199;48.850;8.924;2022-09-09T01:54:58;96845.16;;;15.03;74.63
20079;BME280;10199;48.850;8.924;2022-09-09T01:57:39;96831.72;;;15.21;73.48
20079;BME280;10199;48.850;8.924;2022-09-09T02:00:13;96844.94;;;15.28;74.36
20079;BME280;10199;48.850;8.924;2022-09-09T02:02:48;96842.72;;;15.13;75.09
20079;BME280;10199;48.850;8.924;2022-09-09T02:05:33;96841.31;;;14.99;76.34
20079;BME280;10199;48.850;8.924;2022-09-09T02:08:08;96829.59;;;14.77;76.84
20079;BME280;10199;48.850;8.924;2022-09-09T02:10:53;96839.31;;;14.83;76.99
20079;BME280;10199;48.850;8.924;2022-09-09T02:13:36;96835.56;;;14.72;77.18
20079;BME280;10199;48.850;8.924;2022-09-09T02:16:12;96860.44;;;14.66;77.66
20079;BME280;10199;48.850;8.924;2022-09-09T02:18:47;96862.72;;;14.62;77.82
20079;BME280;10199;48.850;8.924;2022-09-09T02:21:30;96864.53;;;14.50;78.72
20079;BME280;10199;48.850;8.924;2022-09-09T02:24:04;96873.03;;;14.41;79.12
20079;BME280;10199;48.850;8.924;2022-09-09T02:26:40;96847.22;;;14.41;79.00
20079;BME280;10199;48.850;8.924;2022-09-09T02:29:15;96869.66;;;14.33;79.23
20079;BME280;10199;48.850;8.924;2022-09-09T02:31:46;96850.28;;;14.26;79.86
20079;BME280;10199;48.850;8.924;2022-09-09T02:34:22;96863.31;;;14.16;80.14
20079;BME280;10199;48.850;8.924;2022-09-09T02:36:53;96845.19;;;14.25;79.71
20079;BME280;10199;48.850;8.924;2022-09-09T02:39:23;96849.41;;;14.32;78.92
20079;BME280;10199;48.850;8.924;2022-09-09T02:41:51;96822.38;;;14.17;79.07
20079;BME280;10199;48.850;8.924;2022-09-09T02:44:28;96838.56;;;14.16;79.93
20079;BME280;10199;48.850;8.924;2022-09-09T02:47:16;96836.50;;;13.99;80.81
20079;BME280;10199;48.850;8.924;2022-09-09T02:49:57;96779.19;;;13.85;80.55
20079;BME280;10199;48.850;8.924;2022-09-09T02:52:40;96822.78;;;14.02;80.78
20079;BME280;10199;48.850;8.924;2022-09-09T02:55:17;96820.47;;;14.06;80.38
20079;BME280;10199;48.850;8.924;2022-09-09T02:57:50;96807.78;;;14.08;79.68
20079;BME280;10199;48.850;8.924;2022-09-09T03:00:23;96848.47;;;14.09;80.13
20079;BME280;10199;48.850;8.924;2022-09-09T03:02:53;96818.19;;;14.10;80.23
20079;BME280;10199;48.850;8.924;2022-09-09T03:05:22;96842.88;;;13.98;80.24
20079;BME280;10199;48.850;8.924;2022-09-09T03:07:51;96821.44;;;14.12;79.71
20079;BME280;10199;48.850;8.924;2022-09-09T03:10:20;96828.00;;;14.09;79.31
20079;BME280;10199;48.850;8.924;2022-09-09T03:12:47;96811.97;;;14.16;79.47
20079;BME280;10199;48.850;8.924;2022-09-09T03:15:16;96811.25;;;14.09;79.71
20079;BME280;10199;48.850;8.924;2022-09-09T03:17:45;96816.41;;;14.03;79.72
20079;BME280;10199;48.850;8.924;2022-09-09T03:20:13;96826.09;;;13.98;80.02
20079;BME280;10199;48.850;8.924;2022-09-09T03:22:41;96838.38;;;13.99;80.36
20079;BME280;10199;48.850;8.924;2022-09-09T03:25:12;96815.22;;;13.81;80.45
20079;BME280;10199;48.850;8.924;2022-09-09T03:27:41;96835.78;;;13.92;80.01
20079;BME280;10199;48.850;8.924;2022-09-09T03:30:10;96844.13;;;13.96;79.52
20079;BME280;10199;48.850;8.924;2022-09-09T03:32:39;96847.91;;;13.88;79.86
20079;BME280;10199;48.850;8.924;2022-09-09T03:35:08;96835.19;;;13.90;79.53
20079;BME280;10199;48.850;8.924;2022-09-09T03:37:36;96774.25;;;13.52;79.41
20079;BME280;10199;48.850;8.924;2022-09-09T03:40:07;96835.63;;;13.87;79.43
20079;BME280;10199;48.850;8.924;2022-09-09T03:42:38;96834.13;;;13.73;79.53
20079;BME280;10199;48.850;8.924;2022-09-09T03:45:07;96834.38;;;13.90;78.42
20079;BME280;10199;48.850;8.924;2022-09-09T03:47:39;96844.56;;;13.93;78.33
20079;BME280;10199;48.850;8.924;2022-09-09T03:50:08;96840.78;;;14.00;78.22
20079;BME280;10199;48.850;8.924;2022-09-09T03:52:41;96847.38;;;13.98;78.24
20079;BME280;10199;48.850;8.924;2022-09-09T03:55:16;96843.41;;;13.89;78.64
20079;BME280;10199;48.850;8.924;2022-09-09T03:57:46;96837.22;;;13.70;78.54
20079;BME280;10199;48.850;8.924;2022-09-09T04:00:14;96842.19;;;13.85;78.93
20079;BME280;10199;48.850;8.924;2022-09-09T04:02:43;96839.81;;;13.77;79.18
20079;BME280;10199;48.850;8.924;2022-09-09T04:05:14;96844.31;;;13.76;79.06
20079;BME280;10199;48.850;8.924;2022-09-09T04:07:45;96847.66;;;13.71;79.16
20079;BME280;10199;48.850;8.924;2022-09-09T04:10:13;96781.72;;;13.44;78.91
20079;BME280;10199;48.850;8.924;2022-09-09T04:12:42;96842.34;;;13.90;78.64
20079;BME280;10199;48.850;8.924;2022-09-09T04:15:13;96841.69;;;13.94;78.15
20079;BME280;10199;48.850;8.924;2022-09-09T04:17:42;96838.38;;;13.99;77.97
20079;BME280;10199;48.850;8.924;2022-09-09T04:20:10;96847.75;;;14.01;78.14
20079;BME280;10199;48.850;8.924;2022-09-09T04:22:38;96842.50;;;13.95;78.19
20079;BME280;10199;48.850;8.924;2022-09-09T04:25:07;96826.56;;;13.95;78.16
20079;BME280;10199;48.850;8.924;2022-09-09T04:27:35;96842.56;;;14.07;77.85
20079;BME280;10199;48.850;8.924;2022-09-09T04:30:03;96840.19;;;13.80;77.96
20079;BME280;10199;48.850;8.924;2022-09-09T04:32:34;96844.13;;;13.96;78.21
20079;BME280;10199;48.850;8.924;2022-09-09T04:35:03;96847.09;;;13.88;78.76
20079;BME280;10199;48.850;8.924;2022-09-09T04:37:31;96871.06;;;13.81;78.54
20079;BME280;10199;48.850;8.924;2022-09-09T04:39:59;96850.81;;;13.80;78.76
20079;BME280;10199;48.850;8.924;2022-09-09T04:42:29;96841.50;;;13.71;78.41
20079;BME280;10199;48.850;8.924;2022-09-09T04:44:57;96863.09;;;13.81;78.41
20079;BME280;10199;48.850;8.924;2022-09-09T04:47:25;96836.72;;;13.61;78.74
20079;BME280;10199;48.850;8.924;2022-09-09T04:49:54;96858.13;;;13.85;78.36
20079;BME280;10199;48.850;8.924;2022-09-09T04:52:24;96860.19;;;13.83;78.57
20079;BME280;10199;48.850;8.924;2022-09-09T04:54:52;96871.81;;;13.88;78.33
20079;BME280;10199;48.850;8.924;2022-09-09T04:57:20;96866.09;;;13.85;78.54
20079;BME280;10199;48.850;8.924;2022-09-09T04:59:49;96890.84;;;13.85;78.58
20079;BME280;10199;48.850;8.924;2022-09-09T05:02:19;96874.91;;;13.85;78.34
20079;BME280;10199;48.850;8.924;2022-09-09T05:04:49;96888.16;;;13.92;78.61
20079;BME280;10199;48.850;8.924;2022-09-09T05:07:18;96882.59;;;13.93;78.35
20079;BME280;10199;48.850;8.924;2022-09-09T05:09:46;96881.28;;;14.02;77.79
20079;BME280;10199;48.850;8.924;2022-09-09T05:12:16;96881.66;;;14.06;77.44
20079;BME280;10199;48.850;8.924;2022-09-09T05:14:49;96877.59;;;14.03;77.54
20079;BME280;10199;48.850;8.924;2022-09-09T05:17:17;96901.22;;;14.12;77.47
20079;BME280;10199;48.850;8.924;2022-09-09T05:19:46;96877.28;;;14.12;77.29
20079;BME280;10199;48.850;8.924;2022-09-09T05:22:19;96879.22;;;14.05;77.34
20079;BME280;10199;48.850;8.924;2022-09-09T05:24:48;96879.81;;;13.88;77.75
20079;BME280;10199;48.850;8.924;2022-09-09T05:27:17;96888.72;;;14.30;76.65
20079;BME280;10199;48.850;8.924;2022-09-09T05:29:47;96901.66;;;14.27;76.36
20079;BME280;10199;48.850;8.924;2022-09-09T05:32:15;96899.00;;;14.27;76.92
20079;BME280;10199;48.850;8.924;2022-09-09T05:34:46;96888.00;;;14.23;76.69
20079;BME280;10199;48.850;8.924;2022-09-09T05:37:15;96890.44;;;14.25;76.87
20079;BME280;10199;48.850;8.924;2022-09-09T05:39:45;96871.22;;;14.23;76.65
20079;BME280;10199;48.850;8.924;2022-09-09T05:42:13;96894.84;;;14.31;76.35
20079;BME280;10199;48.850;8.924;2022-09-09T05:44:41;96892.34;;;14.36;76.67
20079;BME280;10199;48.850;8.924;2022-09-09T05:47:11;96903.19;;;14.34;76.25
20079;BME280;10199;48.850;8.924;2022-09-09T05:49:40;96876.38;;;14.36;75.75
20079;BME280;10199;48.850;8.924;2022-09-09T05:52:09;96865.72;;;14.36;75.88
20079;BME280;10199;48.850;8.924;2022-09-09T05:54:37;96854.53;;;14.16;76.23
20079;BME280;10199;48.850;8.924;2022-09-09T05:57:07;96898.09;;;14.51;76.54
20079;BME280;10199;48.850;8.924;2022-09-09T05:59:34;96902.06;;;14.60;76.51
20079;BME280;10199;48.850;8.924;2022-09-09T06:02:02;96843.97;;;14.09;76.60
20079;BME280;10199;48.850;8.924;2022-09-09T06:04:34;96898.00;;;14.58;76.20
20079;BME280;10199;48.850;8.924;2022-09-09T06:07:04;96886.28;;;14.47;76.40
20079;BME280;10199;48.850;8.924;2022-09-09T06:09:32;96904.75;;;14.60;75.75
20079;BME280;10199;48.850;8.924;2022-09-09T06:12:00;96847.22;;;14.11;76.47
20079;BME280;10199;48.850;8.924;2022-09-09T06:14:33;96901.34;;;14.35;76.37
20079;BME280;10199;48.850;8.924;2022-09-09T06:17:01;96898.25;;;14.38;76.28
20079;BME280;10199;48.850;8.924;2022-09-09T06:19:30;96919.03;;;14.29;76.62
20079;BME280;10199;48.850;8.924;2022-09-09T06:21:59;96895.13;;;14.41;76.49
20079;BME280;10199;48.850;8.924;2022-09-09T06:24:29;96842.19;;;14.03;76.88
20079;BME280;10199;48.850;8.924;2022-09-09T06:26:58;96888.50;;;14.32;76.60
20079;BME280;10199;48.850;8.924;2022-09-09T06:29:30;96873.66;;;14.24;76.46
20079;BME280;10199;48.850;8.924;2022-09-09T06:32:02;96902.31;;;14.41;76.18
20079;BME280;10199;48.850;8.924;2022-09-09T06:34:30;96899.06;;;14.57;75.87
20079;BME280;10199;48.850;8.924;2022-09-09T06:36:59;96875.28;;;14.74;74.69
20079;BME280;10199;48.850;8.924;2022-09-09T06:39:34;96908.56;;;16.30;70.43
20079;BME280;10199;48.850;8.924;2022-09-09T06:42:02;96921.16;;;15.82;70.68
20079;BME280;10199;48.850;8.924;2022-09-09T06:44:45;96909.31;;;16.53;69.24
20079;BME280;10199;48.850;8.924;2022-09-09T06:47:22;96913.34;;;16.16;70.25
20079;BME280;10199;48.850;8.924;2022-09-09T06:49:51;96910.34;;;16.01;71.12
20079;BME280;10199;48.850;8.924;2022-09-09T06:52:20;96900.75;;;15.88;71.20
20079;BME280;10199;48.850;8.924;2022-09-09T06:54:48;96882.09;;;15.76;71.22
20079;BME280;10199;48.850;8.924;2022-09-09T06:57:16;96904.09;;;15.60;71.75
20079;BME280;10199;48.850;8.924;2022-09-09T07:00:00;96888.75;;;15.44;71.68
20079;BME280;10199;48.850;8.924;2022-09-09T07:02:30;96911.63;;;15.98;71.31
20079;BME280;10199;48.850;8.924;2022-09-09T07:04:58;96936.44;;;16.10;70.92
20079;BME280;10199;48.850;8.924;2022-09-09T07:07:26;96913.81;;;16.13;70.87
20079;BME280;10199;48.850;8.924;2022-09-09T07:09:55;96905.69;;;16.08;70.37
20079;BME280;10199;48.850;8.924;2022-09-09T07:12:23;96917.25;;;16.25;69.94
20079;BME280;10199;48.850;8.924;2022-09-09T07:14:56;96921.06;;;16.41;69.84
20079;BME280;10199;48.850;8.924;2022-09-09T07:17:24;96923.84;;;16.46;70.12
20079;BME280;10199;48.850;8.924;2022-09-09T07:19:53;96923.66;;;17.66;66.85
20079;BME280;10199;48.850;8.924;2022-09-09T07:22:22;96829.31;;;16.87;67.84
20079;BME280;10199;48.850;8.924;2022-09-09T07:24:51;96916.75;;;16.92;68.43
20079;BME280;10199;48.850;8.924;2022-09-09T07:27:19;96917.72;;;16.85;68.52
20079;BME280;10199;48.850;8.924;2022-09-09T07:29:48;96917.09;;;17.12;67.95
20079;BME280;10199;48.850;8.924;2022-09-09T07:32:16;96908.25;;;16.95;69.00
20079;BME280;10199;48.850;8.924;2022-09-09T07:34:46;96918.22;;;18.17;66.21
20079;BME280;10199;48.850;8.924;2022-09-09T07:37:15;96909.41;;;19.67;60.81
20079;BME280;10199;48.850;8.924;2022-09-09T07:39:44;96908.22;;;20.38;59.26
20079;BME280;10199;48.850;8.924;2022-09-09T07:42:12;96905.69;;;19.09;61.24
20079;BME280;10199;48.850;8.924;2022-09-09T07:44:41;96909.19;;;19.10;60.19
20079;BME280;10199;48.850;8.924;2022-09-09T07:47:14;96912.16;;;18.87;62.10
20079;BME280;10199;48.850;8.924;2022-09-09T07:49:45;96919.50;;;18.31;63.37
20079;BME280;10199;48.850;8.924;2022-09-09T07:52:22;96924.06;;;20.34;57.68
20079;BME280;10199;48.850;8.924;2022-09-09T07:54:54;96920.09;;;20.42;58.02
20079;BME280;10199;48.850;8.924;2022-09-09T07:57:23;96901.56;;;18.75;62.66
20079;BME280;10199;48.850;8.924;2022-09-09T07:59:52;96919.69;;;19.76;59.97
20079;BME280;10199;48.850;8.924;2022-09-09T08:02:20;96920.53;;;20.23;57.72
20079;BME280;10199;48.850;8.924;2022-09-09T08:04:49;96913.06;;;21.03;56.08
20079;BME280;10199;48.850;8.924;2022-09-09T08:07:19;96890.19;;;20.90;56.17
20079;BME280;10199;48.850;8.924;2022-09-09T08:09:53;96920.31;;;21.03;55.73
20079;BME280;10199;48.850;8.924;2022-09-09T08:12:26;96918.47;;;21.13;55.72
20079;BME280;10199;48.850;8.924;2022-09-09T08:14:55;96933.38;;;20.68;56.42
20079;BME280;10199;48.850;8.924;2022-09-09T08:17:27;96927.22;;;20.78;56.10
20079;BME280;10199;48.850;8.924;2022-09-09T08:19:56;96932.25;;;21.52;54.29
20079;BME280;10199;48.850;8.924;2022-09-09T08:22:27;96931.97;;;22.00;53.93
20079;BME280;10199;48.850;8.924;2022-09-09T08:24:56;96934.13;;;21.32;54.28
20079;BME280;10199;48.850;8.924;2022-09-09T08:27:24;96938.19;;;21.70;54.27
20079;BME280;10199;48.850;8.924;2022-09-09T08:29:53;96919.25;;;21.09;55.23
20079;BME280;10199;48.850;8.924;2022-09-09T08:32:22;96918.69;;;20.96;56.07
20079;BME280;10199;48.850;8.924;2022-09-09T08:34:50;96863.88;;;21.53;54.90
20079;BME280;10199;48.850;8.924;2022-09-09T08:37:21;96909.09;;;21.41;53.05
20079;BME280;10199;48.850;8.924;2022-09-09T08:39:49;96920.13;;;21.24;54.38
20079;BME280;10199;48.850;8.924;2022-09-09T08:42:38;96941.00;;;20.87;56.37
20079;BME280;10199;48.850;8.924;2022-09-09T08:45:21;96946.13;;;20.93;55.69
20079;BME280;10199;48.850;8.924;2022-09-09T08:48:01;96924.59;;;22.46;53.61
20079;BME280;10199;48.850;8.924;2022-09-09T08:50:34;96922.41;;;22.58;52.03
20079;BME280;10199;48.850;8.924;2022-09-09T08:53:14;96931.44;;;21.42;53.85
20079;BME280;10199;48.850;8.924;2022-09-09T08:55:47;96894.69;;;20.75;54.58
20079;BME280;10199;48.850;8.924;2022-09-09T08:58:23;96913.94;;;21.54;53.95
20079;BME280;10199;48.850;8.924;2022-09-09T09:01:09;96925.41;;;20.89;55.49
20079;BME280;10199;48.850;8.924;2022-09-09T09:03:53;96929.00;;;21.91;52.79
20079;BME280;10199;48.850;8.924;2022-09-09T09:06:39;96922.22;;;22.29;51.99
20079;BME280;10199;48.850;8.924;2022-09-09T09:09:16;96928.50;;;21.84;52.42
20079;BME280;10199;48.850;8.924;2022-09-09T09:11:51;96895.38;;;21.22;52.78
20079;BME280;10199;48.850;8.924;2022-09-09T09:14:23;96923.91;;;20.56;53.76
20079;BME280;10199;48.850;8.924;2022-09-09T09:16:59;96926.56;;;19.98;55.94
20079;BME280;10199;48.850;8.924;2022-09-09T09:19:31;96916.09;;;22.03;51.93
20079;BME280;10199;48.850;8.924;2022-09-09T09:22:05;96918.97;;;23.02;50.87
20079;BME280;10199;48.850;8.924;2022-09-09T09:24:43;96903.94;;;21.19;51.72
20079;BME280;10199;48.850;8.924;2022-09-09T09:27:17;96913.41;;;19.97;55.88
20079;BME280;10199;48.850;8.924;2022-09-09T09:29:54;96916.81;;;19.87;57.11
20079;BME280;10199;48.850;8.924;2022-09-09T09:32:50;96916.09;;;19.97;56.30
20079;BME280;10199;48.850;8.924;2022-09-09T09:35:19;96904.47;;;21.21;52.80
20079;BME280;10199;48.850;8.924;2022-09-09T09:37:47;96907.19;;;22.08;50.62
20079;BME280;10199;48.850;8.924;2022-09-09T09:40:35;96901.53;;;23.67;47.30
20079;BME280;10199;48.850;8.924;2022-09-09T09:43:03;96899.53;;;23.05;48.97
20079;BME280;10199;48.850;8.924;2022-09-09T09:45:41;96887.03;;;21.34;48.10
20079;BME280;10199;48.850;8.924;2022-09-09T09:48:13;96901.56;;;21.48;48.57
20079;BME280;10199;48.850;8.924;2022-09-09T09:50:48;96893.38;;;20.20;52.09
20079;BME280;10199;48.850;8.924;2022-09-09T09:53:20;96899.22;;;20.07;53.64
20079;BME280;10199;48.850;8.924;2022-09-09T09:55:54;96905.53;;;19.90;55.97
20079;BME280;10199;48.850;8.924;2022-09-09T09:58:23;96907.13;;;19.86;57.22
20079;BME280;10199;48.850;8.924;2022-09-09T10:00:54;96887.41;;;20.70;53.49
20079;BME280;10199;48.850;8.924;2022-09-09T10:03:27;96887.56;;;21.72;50.88
20079;BME280;10199;48.850;8.924;2022-09-09T10:05:56;96902.63;;;21.88;50.93
20079;BME280;10199;48.850;8.924;2022-09-09T10:08:25;96884.38;;;22.65;49.11
20079;BME280;10199;48.850;8.924;2022-09-09T10:11:14;96772.63;;;20.50;51.94
20079;BME280;10199;48.850;8.924;2022-09-09T10:13:53;96897.53;;;21.46;53.01
20079;BME280;10199;48.850;8.924;2022-09-09T10:16:35;96879.03;;;22.54;48.04
20079;BME280;10199;48.850;8.924;2022-09-09T10:19:10;96891.59;;;21.84;50.02
20079;BME280;10199;48.850;8.924;2022-09-09T10:21:53;96897.97;;;20.87;50.79
20079;BME280;10199;48.850;8.924;2022-09-09T10:24:39;96881.44;;;20.48;53.27
20079;BME280;10199;48.850;8.924;2022-09-09T10:27:18;96879.72;;;20.99;51.65
20079;BME280;10199;48.850;8.924;2022-09-09T10:30:01;96889.03;;;20.66;51.67
20079;BME280;10199;48.850;8.924;2022-09-09T10:32:45;96807.56;;;20.60;50.92
20079;BME280;10199;48.850;8.924;2022-09-09T10:35:29;96890.03;;;20.50;48.99
20079;BME280;10199;48.850;8.924;2022-09-09T10:38:11;96893.84;;;20.64;49.47
20079;BME280;10199;48.850;8.924;2022-09-09T10:40:48;96896.56;;;20.69;50.13
20079;BME280;10199;48.850;8.924;2022-09-09T10:43:50;96886.22;;;21.74;51.11
20079;BME280;10199;48.850;8.924;2022-09-09T10:46:31;96893.84;;;22.47;48.98
20079;BME280;10199;48.850;8.924;2022-09-09T10:49:13;96887.81;;;21.65;50.62
20079;BME280;10199;48.850;8.924;2022-09-09T10:51:53;96908.91;;;20.70;52.15
20079;BME280;10199;48.850;8.924;2022-09-09T10:54:41;96900.38;;;19.79;53.93
20079;BME280;10199;48.850;8.924;2022-09-09T10:57:13;96932.81;;;19.72;55.31
20079;BME280;10199;48.850;8.924;2022-09-09T10:59:46;96906.47;;;18.83;56.69
20079;BME280;10199;48.850;8.924;2022-09-09T11:02:22;96940.00;;;18.42;59.08
20079;BME280;10199;48.850;8.924;2022-09-09T11:04:59;96951.78;;;18.41;59.99
20079;BME280;10199;48.850;8.924;2022-09-09T11:07:33;96958.94;;;18.19;61.72
20079;BME280;10199;48.850;8.924;2022-09-09T11:10:07;96927.38;;;17.65;62.56
20079;BME280;10199;48.850;8.924;2022-09-09T11:12:45;96954.78;;;17.72;62.39
20079;BME280;10199;48.850;8.924;2022-09-09T11:15:20;96981.84;;;17.93;61.58
20079;BME280;10199;48.850;8.924;2022-09-09T11:17:55;96962.56;;;17.91;62.97
20079;BME280;10199;48.850;8.924;2022-09-09T11:20:25;96974.38;;;18.28;64.78
20079;BME280;10199;48.850;8.924;2022-09-09T11:22:56;96968.84;;;17.34;66.58
20079;BME280;10199;48.850;8.924;2022-09-09T11:25:30;96988.22;;;17.58;67.34
20079;BME280;10199;48.850;8.924;2022-09-09T11:28:11;97005.44;;;17.34;69.32
20079;BME280;10199;48.850;8.924;2022-09-09T11:30:48;96980.91;;;17.08;69.57
20079;BME280;10199;48.850;8.924;2022-09-09T11:33:34;96974.84;;;17.41;71.28
20079;BME280;10199;48.850;8.924;2022-09-09T11:36:31;96957.38;;;17.67;70.12
20079;BME280;10199;48.850;8.924;2022-09-09T11:39:13;96956.78;;;17.65;70.29
20079;BME280;10199;48.850;8.924;2022-09-09T11:41:49;96951.13;;;17.78;70.60
20079;BME280;10199;48.850;8.924;2022-09-09T11:44:28;96924.13;;;18.57;70.15
20079;BME280;10199;48.850;8.924;2022-09-09T11:46:57;96928.94;;;19.31;65.69
20079;BME280;10199;48.850;8.924;2022-09-09T11:49:28;96933.19;;;19.27;63.72
20079;BME280;10199;48.850;8.924;2022-09-09T11:51:59;96931.78;;;19.19;62.70
20079;BME280;10199;48.850;8.924;2022-09-09T11:54:30;96844.31;;;19.45;59.74
20079;BME280;10199;48.850;8.924;2022-09-09T11:56:58;96903.28;;;19.72;58.17
20079;BME280;10199;48.850;8.924;2022-09-09T11:59:28;96897.47;;;20.32;55.90
20079;BME280;10199;48.850;8.924;2022-09-09T12:01:58;96889.78;;;20.51;55.28
20079;BME280;10199;48.850;8.924;2022-09-09T12:04:30;96903.84;;;20.79;54.68
20079;BME280;10199;48.850;8.924;2022-09-09T12:07:05;96912.31;;;21.38;55.34
20079;BME280;10199;48.850;8.924;2022-09-09T12:09:52;96887.28;;;21.58;53.69
20079;BME280;10199;48.850;8.924;2022-09-09T12:12:30;96888.38;;;21.72;52.47
20079;BME280;10199;48.850;8.924;2022-09-09T12:15:01;96863.88;;;21.53;50.90
20079;BME280;10199;48.850;8.924;2022-09-09T12:17:31;96887.03;;;21.44;52.13
20079;BME280;10199;48.850;8.924;2022-09-09T12:20:12;96860.56;;;22.12;49.08
20079;BME280;10199;48.850;8.924;2022-09-09T12:23:01;96875.44;;;21.18;49.63
20079;BME280;10199;48.850;8.924;2022-09-09T12:25:41;96875.72;;;21.78;49.37
20079;BME280;10199;48.850;8.924;2022-09-09T12:28:17;96891.06;;;21.57;48.97
20079;BME280;10199;48.850;8.924;2022-09-09T12:30:50;96868.72;;;21.67;46.73
20079;BME280;10199;48.850;8.924;2022-09-09T12:33:23;96863.53;;;22.11;49.54
20079;BME280;10199;48.850;8.924;2022-09-09T12:35:54;96793.94;;;21.28;46.55
20079;BME280;10199;48.850;8.924;2022-09-09T12:38:30;96869.25;;;21.43;48.30
20079;BME280;10199;48.850;8.924;2022-09-09T12:41:00;96871.69;;;21.24;50.33
20079;BME280;10199;48.850;8.924;2022-09-09T12:43:28;96871.63;;;20.89;51.67
20079;BME280;10199;48.850;8.924;2022-09-09T12:45:58;96850.84;;;20.64;52.17
20079;BME280;10199;48.850;8.924;2022-09-09T12:48:32;96865.84;;;20.45;52.92
20079;BME280;10199;48.850;8.924;2022-09-09T12:51:01;96874.28;;;20.11;53.12
20079;BME280;10199;48.850;8.924;2022-09-09T12:53:35;96859.84;;;21.41;51.68
20079;BME280;10199;48.850;8.924;2022-09-09T12:56:05;96864.53;;;20.57;52.06
20079;BME280;10199;48.850;8.924;2022-09-09T12:58:35;96877.47;;;20.71;52.78
20079;BME280;10199;48.850;8.924;2022-09-09T13:01:05;96877.66;;;20.44;52.47
20079;BME280;10199;48.850;8.924;2022-09-09T13:03:42;96860.41;;;20.34;53.68
20079;BME280;10199;48.850;8.924;2022-09-09T13:06:19;96854.97;;;20.92;53.79
20079;BME280;10199;48.850;8.924;2022-09-09T13:08:53;96862.25;;;21.57;49.86
20079;BME280;10199;48.850;8.924;2022-09-09T13:11:24;96851.78;;;21.46;50.85
20079;BME280;10199;48.850;8.924;2022-09-09T13:13:56;96860.34;;;21.02;51.49
20079;BME280;10199;48.850;8.924;2022-09-09T13:16:26;96849.56;;;21.88;50.53
20079;BME280;10199;48.850;8.924;2022-09-09T13:19:00;96859.53;;;21.07;52.11
20079;BME280;10199;48.850;8.924;2022-09-09T13:21:34;96856.59;;;21.64;50.14
20079;BME280;10199;48.850;8.924;2022-09-09T13:24:04;96853.91;;;21.13;50.00
20079;BME280;10199;48.850;8.924;2022-09-09T13:26:34;96873.84;;;20.34;51.10
20079;BME280;10199;48.850;8.924;2022-09-09T13:29:15;96857.50;;;20.41;51.95
20079;BME280;10199;48.850;8.924;2022-09-09T13:31:45;96837.75;;;20.98;51.38